sensor_id;sensor_type;location;lat;lon;timestamp;P1;durP1;ratioP1;P2;durP2;ratioP2
80104;SDS011;69865;47.648;19.030;2024-01-27T00:00:08;7.93;;;7.83;;
80104;SDS011;69865;47.648;19.030;2024-01-27T00:00:42;8.53;;;8.43;;
80104;SDS011;69865;47.648;19.030;2024-01-27T00:01:14;7.23;;;7.17;;
80104;SDS011;69865;47.648;19.030;2024-01-27T00:01:46;7.53;;;7.53;;
80104;SDS011;69865;47.648;19.030;2024-01-27T00:02:19;7.87;;;7.87;;
80104;SDS011;69865;47.648;19.030;2024-01-27T00:02:51;7.03;;;7.03;;
80104;SDS011;69865;47.648;19.030;2024-01-27T00:03:23;7.37;;;7.37;;
80104;SDS011;69865;47.648;19.030;2024-01-27T00:03:55;7.77;;;7.77;;
80104;SDS011;69865;47.648;19.030;2024-01-27T00:04:27;7.63;;;7.63;;
80104;SDS011;69865;47.648;19.030;2024-01-27T00:04:59;7.67;;;7.67;;
80104;SDS011;69865;47.648;19.030;2024-01-27T00:05:32;7.57;;;7.57;;
80104;SDS011;69865;47.648;19.030;2024-01-27T00:06:04;7.40;;;7.40;;
80104;SDS011;69865;47.648;19.030;2024-01-27T00:06:36;8.47;;;8.37;;
80104;SDS011;69865;47.648;19.030;2024-01-27T00:07:08;7.80;;;7.77;;
80104;SDS011;69865;47.648;19.030;2024-01-27T00:07:41;7.57;;;7.53;;
80104;SDS011;69865;47.648;19.030;2024-01-27T00:08:13;8.13;;;8.07;;
80104;SDS011;69865;47.648;19.030;2024-01-27T00:08:45;8.30;;;8.27;;
80104;SDS011;69865;47.648;19.030;2024-01-27T00:09:17;7.53;;;7.53;;
80104;SDS011;69865;47.648;19.030;2024-01-27T00:09:50;7.90;;;7.90;;
80104;SDS011;69865;47.648;19.030;2024-01-27T00:10:23;8.33;;;8.33;;
80104;SDS011;69865;47.648;19.030;2024-01-27T00:10:55;8.03;;;8.03;;
80104;SDS011;69865;47.648;19.030;2024-01-27T00:11:27;7.73;;;7.73;;
80104;SDS011;69865;47.648;19.030;2024-01-27T00:11:59;8.10;;;8.10;;
80104;SDS011;69865;47.648;19.030;2024-01-27T00:12:31;8.27;;;8.20;;
80104;SDS011;69865;47.648;19.030;2024-01-27T00:13:03;8.67;;;8.60;;
80104;SDS011;69865;47.648;19.030;2024-01-27T00:13:35;7.77;;;7.77;;
80104;SDS011;69865;47.648;19.030;2024-01-27T00:14:07;8.07;;;8.07;;
80104;SDS011;69865;47.648;19.030;2024-01-27T00:14:40;8.67;;;8.67;;
80104;SDS011;69865;47.648;19.030;2024-01-27T00:15:12;8.10;;;8.10;;
80104;SDS011;69865;47.648;19.030;2024-01-27T00:15:44;8.50;;;8.50;;
80104;SDS011;69865;47.648;19.030;2024-01-27T00:16:16;8.70;;;8.70;;
80104;SDS011;69865;47.648;19.030;2024-01-27T00:16:48;8.97;;;8.97;;
80104;SDS011;69865;47.648;19.030;2024-01-27T00:17:20;8.47;;;8.47;;
80104;SDS011;69865;47.648;19.030;2024-01-27T00:17:55;7.73;;;7.73;;
80104;SDS011;69865;47.648;19.030;2024-01-27T00:18:27;8.47;;;8.47;;
80104;SDS011;69865;47.648;19.030;2024-01-27T00:18:59;8.87;;;8.87;;
80104;SDS011;69865;47.648;19.030;2024-01-27T00:19:32;8.27;;;8.27;;
80104;SDS011;69865;47.648;19.030;2024-01-27T00:20:07;7.87;;;7.87;;
80104;SDS011;69865;47.648;19.030;2024-01-27T00:20:40;7.93;;;7.93;;
80104;SDS011;69865;47.648;19.030;2024-01-27T00:21:12;8.13;;;8.13;;
80104;SDS011;69865;47.648;19.030;2024-01-27T00:21:44;7.73;;;7.73;;
80104;SDS011;69865;47.648;19.030;2024-01-27T00:22:16;7.60;;;7.57;;
80104;SDS011;69865;47.648;19.030;2024-01-27T00:22:48;7.63;;;7.60;;
80104;SDS011;69865;47.648;19.030;2024-01-27T00:23:20;7.67;;;7.67;;
80104;SDS011;69865;47.648;19.030;2024-01-27T00:23:52;7.27;;;7.27;;
80104;SDS011;69865;47.648;19.030;2024-01-27T00:24:24;7.63;;;7.63;;
80104;SDS011;69865;47.648;19.030;2024-01-27T00:24:58;7.20;;;7.20;;
80104;SDS011;69865;47.648;19.030;2024-01-27T00:25:30;7.90;;;7.87;;
80104;SDS011;69865;47.648;19.030;2024-01-27T00:26:02;7.93;;;7.80;;
80104;SDS011;69865;47.648;19.030;2024-01-27T00:26:35;7.43;;;7.30;;
80104;SDS011;69865;47.648;19.030;2024-01-27T00:27:07;7.70;;;7.63;;
80104;SDS011;69865;47.648;19.030;2024-01-27T00:27:39;7.43;;;7.37;;
80104;SDS011;69865;47.648;19.030;2024-01-27T00:28:11;7.17;;;7.17;;
80104;SDS011;69865;47.648;19.030;2024-01-27T00:28:43;6.70;;;6.70;;
80104;SDS011;69865;47.648;19.030;2024-01-27T00:29:15;6.83;;;6.83;;
80104;SDS011;69865;47.648;19.030;2024-01-27T00:29:47;7.23;;;7.23;;
80104;SDS011;69865;47.648;19.030;2024-01-27T00:30:19;6.70;;;6.70;;
80104;SDS011;69865;47.648;19.030;2024-01-27T00:30:51;6.57;;;6.57;;
80104;SDS011;69865;47.648;19.030;2024-01-27T00:31:23;6.93;;;6.93;;
80104;SDS011;69865;47.648;19.030;2024-01-27T00:31:56;6.53;;;6.53;;
80104;SDS011;69865;47.648;19.030;2024-01-27T00:32:28;6.60;;;6.60;;
80104;SDS011;69865;47.648;19.030;2024-01-27T00:33:00;6.60;;;6.60;;
80104;SDS011;69865;47.648;19.030;2024-01-27T00:33:33;6.03;;;6.03;;
80104;SDS011;69865;47.648;19.030;2024-01-27T00:34:05;6.57;;;6.57;;
80104;SDS011;69865;47.648;19.030;2024-01-27T00:34:37;6.03;;;6.00;;
80104;SDS011;69865;47.648;19.030;2024-01-27T00:35:09;6.23;;;6.17;;
80104;SDS011;69865;47.648;19.030;2024-01-27T00:35:41;6.47;;;6.43;;
80104;SDS011;69865;47.648;19.030;2024-01-27T00:36:14;6.90;;;6.80;;
80104;SDS011;69865;47.648;19.030;2024-01-27T00:36:46;6.43;;;6.43;;
80104;SDS011;69865;47.648;19.030;2024-01-27T00:37:18;6.03;;;6.03;;
80104;SDS011;69865;47.648;19.030;2024-01-27T00:37:51;6.33;;;6.33;;
80104;SDS011;69865;47.648;19.030;2024-01-27T00:38:24;5.83;;;5.83;;
80104;SDS011;69865;47.648;19.030;2024-01-27T00:38:56;6.23;;;6.23;;
80104;SDS011;69865;47.648;19.030;2024-01-27T00:39:28;5.63;;;5.63;;
80104;SDS011;69865;47.648;19.030;2024-01-27T00:40:02;5.43;;;5.43;;
80104;SDS011;69865;47.648;19.030;2024-01-27T00:40:35;5.13;;;5.13;;
80104;SDS011;69865;47.648;19.030;2024-01-27T00:41:15;5.80;;;5.80;;
80104;SDS011;69865;47.648;19.030;2024-01-27T00:41:47;5.43;;;5.40;;
80104;SDS011;69865;47.648;19.030;2024-01-27T00:42:20;6.07;;;5.97;;
80104;SDS011;69865;47.648;19.030;2024-01-27T00:42:53;5.80;;;5.70;;
80104;SDS011;69865;47.648;19.030;2024-01-27T00:43:25;4.77;;;4.67;;
80104;SDS011;69865;47.648;19.030;2024-01-27T00:43:57;5.07;;;4.97;;
80104;SDS011;69865;47.648;19.030;2024-01-27T00:44:29;5.57;;;5.47;;
80104;SDS011;69865;47.648;19.030;2024-01-27T00:45:01;5.20;;;5.13;;
80104;SDS011;69865;47.648;19.030;2024-01-27T00:45:34;5.17;;;5.07;;
80104;SDS011;69865;47.648;19.030;2024-01-27T00:46:06;5.27;;;5.20;;
80104;SDS011;69865;47.648;19.030;2024-01-27T00:46:38;5.43;;;5.33;;
80104;SDS011;69865;47.648;19.030;2024-01-27T00:47:10;5.10;;;5.00;;
80104;SDS011;69865;47.648;19.030;2024-01-27T00:47:42;5.30;;;5.23;;
80104;SDS011;69865;47.648;19.030;2024-01-27T00:48:14;4.73;;;4.67;;
80104;SDS011;69865;47.648;19.030;2024-01-27T00:48:47;4.23;;;4.20;;
80104;SDS011;69865;47.648;19.030;2024-01-27T00:49:19;4.07;;;4.03;;
80104;SDS011;69865;47.648;19.030;2024-01-27T00:49:52;4.63;;;4.57;;
80104;SDS011;69865;47.648;19.030;2024-01-27T00:50:24;4.23;;;4.20;;
80104;SDS011;69865;47.648;19.030;2024-01-27T00:50:56;4.17;;;4.10;;
80104;SDS011;69865;47.648;19.030;2024-01-27T00:51:28;4.47;;;4.37;;
80104;SDS011;69865;47.648;19.030;2024-01-27T00:52:01;4.73;;;4.67;;
80104;SDS011;69865;47.648;19.030;2024-01-27T00:52:33;4.20;;;4.20;;
80104;SDS011;69865;47.648;19.030;2024-01-27T00:53:05;4.30;;;4.27;;
80104;SDS011;69865;47.648;19.030;2024-01-27T00:53:38;4.37;;;4.37;;
80104;SDS011;69865;47.648;19.030;2024-01-27T00:54:10;4.23;;;4.23;;
80104;SDS011;69865;47.648;19.030;2024-01-27T00:54:42;4.07;;;4.07;;
80104;SDS011;69865;47.648;19.030;2024-01-27T00:55:16;4.30;;;4.30;;
80104;SDS011;69865;47.648;19.030;2024-01-27T00:55:48;4.10;;;4.10;;
80104;SDS011;69865;47.648;19.030;2024-01-27T00:56:20;4.20;;;4.20;;
80104;SDS011;69865;47.648;19.030;2024-01-27T00:56:52;4.27;;;4.20;;
80104;SDS011;69865;47.648;19.030;2024-01-27T00:57:24;3.73;;;3.70;;
80104;SDS011;69865;47.648;19.030;2024-01-27T00:57:56;3.57;;;3.57;;
80104;SDS011;69865;47.648;19.030;2024-01-27T00:58:28;3.63;;;3.63;;
80104;SDS011;69865;47.648;19.030;2024-01-27T00:59:00;3.83;;;3.83;;
80104;SDS011;69865;47.648;19.030;2024-01-27T00:59:32;4.00;;;4.00;;
80104;SDS011;69865;47.648;19.030;2024-01-27T01:00:05;3.63;;;3.63;;
80104;SDS011;69865;47.648;19.030;2024-01-27T01:00:38;3.40;;;3.40;;
80104;SDS011;69865;47.648;19.030;2024-01-27T01:01:10;3.67;;;3.67;;
80104;SDS011;69865;47.648;19.030;2024-01-27T01:01:42;3.87;;;3.87;;
80104;SDS011;69865;47.648;19.030;2024-01-27T01:02:14;3.60;;;3.60;;
80104;SDS011;69865;47.648;19.030;2024-01-27T01:02:46;3.77;;;3.77;;
80104;SDS011;69865;47.648;19.030;2024-01-27T01:03:18;3.87;;;3.87;;
80104;SDS011;69865;47.648;19.030;2024-01-27T01:03:51;3.60;;;3.60;;
80104;SDS011;69865;47.648;19.030;2024-01-27T01:04:23;3.47;;;3.47;;
80104;SDS011;69865;47.648;19.030;2024-01-27T01:04:55;3.40;;;3.40;;
80104;SDS011;69865;47.648;19.030;2024-01-27T01:05:28;3.23;;;3.23;;
80104;SDS011;69865;47.648;19.030;2024-01-27T01:06:00;3.07;;;3.07;;
80104;SDS011;69865;47.648;19.030;2024-01-27T01:06:33;3.60;;;3.60;;
80104;SDS011;69865;47.648;19.030;2024-01-27T01:07:05;3.80;;;3.80;;
80104;SDS011;69865;47.648;19.030;2024-01-27T01:07:38;3.47;;;3.47;;
80104;SDS011;69865;47.648;19.030;2024-01-27T01:08:10;3.13;;;3.13;;
80104;SDS011;69865;47.648;19.030;2024-01-27T01:08:42;2.83;;;2.83;;
80104;SDS011;69865;47.648;19.030;2024-01-27T01:09:14;2.97;;;2.97;;
80104;SDS011;69865;47.648;19.030;2024-01-27T01:09:46;3.17;;;3.17;;
80104;SDS011;69865;47.648;19.030;2024-01-27T01:10:20;2.77;;;2.77;;
80104;SDS011;69865;47.648;19.030;2024-01-27T01:10:52;2.70;;;2.70;;
80104;SDS011;69865;47.648;19.030;2024-01-27T01:11:24;3.00;;;3.00;;
80104;SDS011;69865;47.648;19.030;2024-01-27T01:11:57;2.90;;;2.90;;
80104;SDS011;69865;47.648;19.030;2024-01-27T01:12:29;2.57;;;2.57;;
80104;SDS011;69865;47.648;19.030;2024-01-27T01:13:01;2.60;;;2.60;;
80104;SDS011;69865;47.648;19.030;2024-01-27T01:13:33;2.63;;;2.63;;
80104;SDS011;69865;47.648;19.030;2024-01-27T01:14:05;2.87;;;2.87;;
80104;SDS011;69865;47.648;19.030;2024-01-27T01:14:37;3.10;;;3.10;;
80104;SDS011;69865;47.648;19.030;2024-01-27T01:15:10;3.27;;;3.27;;
80104;SDS011;69865;47.648;19.030;2024-01-27T01:15:42;3.03;;;3.03;;
80104;SDS011;69865;47.648;19.030;2024-01-27T01:16:14;2.67;;;2.67;;
80104;SDS011;69865;47.648;19.030;2024-01-27T01:16:46;2.80;;;2.80;;
80104;SDS011;69865;47.648;19.030;2024-01-27T01:17:18;2.63;;;2.63;;
80104;SDS011;69865;47.648;19.030;2024-01-27T01:17:50;2.90;;;2.90;;
80104;SDS011;69865;47.648;19.030;2024-01-27T01:18:22;2.67;;;2.67;;
80104;SDS011;69865;47.648;19.030;2024-01-27T01:18:55;2.70;;;2.70;;
80104;SDS011;69865;47.648;19.030;2024-01-27T01:19:27;2.60;;;2.60;;
80104;SDS011;69865;47.648;19.030;2024-01-27T01:19:59;2.27;;;2.27;;
80104;SDS011;69865;47.648;19.030;2024-01-27T01:20:31;2.57;;;2.57;;
80104;SDS011;69865;47.648;19.030;2024-01-27T01:21:03;2.57;;;2.57;;
80104;SDS011;69865;47.648;19.030;2024-01-27T01:21:35;2.63;;;2.63;;
80104;SDS011;69865;47.648;19.030;2024-01-27T01:22:09;2.43;;;2.43;;
80104;SDS011;69865;47.648;19.030;2024-01-27T01:22:44;2.33;;;2.33;;
80104;SDS011;69865;47.648;19.030;2024-01-27T01:23:16;2.30;;;2.30;;
80104;SDS011;69865;47.648;19.030;2024-01-27T01:23:48;2.17;;;2.17;;
80104;SDS011;69865;47.648;19.030;2024-01-27T01:24:20;2.27;;;2.27;;
80104;SDS011;69865;47.648;19.030;2024-01-27T01:24:52;2.23;;;2.23;;
80104;SDS011;69865;47.648;19.030;2024-01-27T01:25:26;2.30;;;2.30;;
80104;SDS011;69865;47.648;19.030;2024-01-27T01:25:58;2.37;;;2.37;;
80104;SDS011;69865;47.648;19.030;2024-01-27T01:26:30;2.33;;;2.33;;
80104;SDS011;69865;47.648;19.030;2024-01-27T01:27:02;2.20;;;2.20;;
80104;SDS011;69865;47.648;19.030;2024-01-27T01:27:35;2.53;;;2.53;;
80104;SDS011;69865;47.648;19.030;2024-01-27T01:28:07;2.13;;;2.13;;
80104;SDS011;69865;47.648;19.030;2024-01-27T01:28:39;2.37;;;2.37;;
80104;SDS011;69865;47.648;19.030;2024-01-27T01:29:12;2.43;;;2.43;;
80104;SDS011;69865;47.648;19.030;2024-01-27T01:29:44;2.63;;;2.63;;
80104;SDS011;69865;47.648;19.030;2024-01-27T01:30:16;2.30;;;2.30;;
80104;SDS011;69865;47.648;19.030;2024-01-27T01:30:49;2.23;;;2.23;;
80104;SDS011;69865;47.648;19.030;2024-01-27T01:31:21;2.13;;;2.13;;
80104;SDS011;69865;47.648;19.030;2024-01-27T01:31:53;2.57;;;2.57;;
80104;SDS011;69865;47.648;19.030;2024-01-27T01:32:25;2.53;;;2.53;;
80104;SDS011;69865;47.648;19.030;2024-01-27T01:32:57;2.00;;;2.00;;
80104;SDS011;69865;47.648;19.030;2024-01-27T01:33:29;2.27;;;2.27;;
80104;SDS011;69865;47.648;19.030;2024-01-27T01:34:02;2.73;;;2.73;;
80104;SDS011;69865;47.648;19.030;2024-01-27T01:34:34;2.33;;;2.33;;
80104;SDS011;69865;47.648;19.030;2024-01-27T01:35:06;2.20;;;2.20;;
80104;SDS011;69865;47.648;19.030;2024-01-27T01:35:38;2.27;;;2.27;;
80104;SDS011;69865;47.648;19.030;2024-01-27T01:36:10;1.97;;;1.97;;
80104;SDS011;69865;47.648;19.030;2024-01-27T01:36:42;2.03;;;2.03;;
80104;SDS011;69865;47.648;19.030;2024-01-27T01:37:15;2.53;;;2.53;;
80104;SDS011;69865;47.648;19.030;2024-01-27T01:37:47;2.77;;;2.77;;
80104;SDS011;69865;47.648;19.030;2024-01-27T01:38:19;2.67;;;2.67;;
80104;SDS011;69865;47.648;19.030;2024-01-27T01:38:51;2.63;;;2.63;;
80104;SDS011;69865;47.648;19.030;2024-01-27T01:39:23;2.67;;;2.67;;
80104;SDS011;69865;47.648;19.030;2024-01-27T01:39:55;2.47;;;2.47;;
80104;SDS011;69865;47.648;19.030;2024-01-27T01:40:29;2.57;;;2.57;;
80104;SDS011;69865;47.648;19.030;2024-01-27T01:41:01;2.27;;;2.27;;
80104;SDS011;69865;47.648;19.030;2024-01-27T01:41:33;2.30;;;2.30;;
80104;SDS011;69865;47.648;19.030;2024-01-27T01:42:05;2.07;;;2.07;;
80104;SDS011;69865;47.648;19.030;2024-01-27T01:42:37;2.10;;;2.10;;
80104;SDS011;69865;47.648;19.030;2024-01-27T01:43:10;2.13;;;2.13;;
80104;SDS011;69865;47.648;19.030;2024-01-27T01:43:42;2.27;;;2.27;;
80104;SDS011;69865;47.648;19.030;2024-01-27T01:44:14;2.00;;;2.00;;
80104;SDS011;69865;47.648;19.030;2024-01-27T01:44:46;2.07;;;2.07;;
80104;SDS011;69865;47.648;19.030;2024-01-27T01:45:18;2.27;;;2.27;;
80104;SDS011;69865;47.648;19.030;2024-01-27T01:45:51;2.27;;;2.27;;
80104;SDS011;69865;47.648;19.030;2024-01-27T01:46:23;2.23;;;2.23;;
80104;SDS011;69865;47.648;19.030;2024-01-27T01:46:56;2.77;;;2.77;;
80104;SDS011;69865;47.648;19.030;2024-01-27T01:47:28;2.27;;;2.27;;
80104;SDS011;69865;47.648;19.030;2024-01-27T01:48:01;2.30;;;2.30;;
80104;SDS011;69865;47.648;19.030;2024-01-27T01:48:34;2.10;;;2.10;;
80104;SDS011;69865;47.648;19.030;2024-01-27T01:49:06;2.03;;;2.03;;
80104;SDS011;69865;47.648;19.030;2024-01-27T01:49:39;2.30;;;2.30;;
80104;SDS011;69865;47.648;19.030;2024-01-27T01:50:12;2.13;;;2.13;;
80104;SDS011;69865;47.648;19.030;2024-01-27T01:50:45;2.37;;;2.37;;
80104;SDS011;69865;47.648;19.030;2024-01-27T01:51:17;2.47;;;2.47;;
80104;SDS011;69865;47.648;19.030;2024-01-27T01:51:50;2.43;;;2.43;;
80104;SDS011;69865;47.648;19.030;2024-01-27T01:52:22;2.03;;;2.03;;
80104;SDS011;69865;47.648;19.030;2024-01-27T01:52:54;2.10;;;2.10;;
80104;SDS011;69865;47.648;19.030;2024-01-27T01:53:28;1.87;;;1.87;;
80104;SDS011;69865;47.648;19.030;2024-01-27T01:54:00;2.20;;;2.20;;
80104;SDS011;69865;47.648;19.030;2024-01-27T01:54:33;2.33;;;2.33;;
80104;SDS011;69865;47.648;19.030;2024-01-27T01:55:06;1.87;;;1.87;;
80104;SDS011;69865;47.648;19.030;2024-01-27T01:55:40;2.07;;;2.07;;
80104;SDS011;69865;47.648;19.030;2024-01-27T01:56:13;1.90;;;1.90;;
80104;SDS011;69865;47.648;19.030;2024-01-27T01:56:46;2.13;;;2.13;;
80104;SDS011;69865;47.648;19.030;2024-01-27T01:57:19;2.53;;;2.53;;
80104;SDS011;69865;47.648;19.030;2024-01-27T01:57:51;2.50;;;2.50;;
80104;SDS011;69865;47.648;19.030;2024-01-27T01:58:23;1.83;;;1.83;;
80104;SDS011;69865;47.648;19.030;2024-01-27T01:58:55;1.70;;;1.70;;
80104;SDS011;69865;47.648;19.030;2024-01-27T01:59:27;1.73;;;1.73;;
80104;SDS011;69865;47.648;19.030;2024-01-27T01:59:59;2.03;;;2.03;;
80104;SDS011;69865;47.648;19.030;2024-01-27T02:00:32;2.23;;;2.23;;
80104;SDS011;69865;47.648;19.030;2024-01-27T02:01:04;2.00;;;2.00;;
80104;SDS011;69865;47.648;19.030;2024-01-27T02:01:37;1.80;;;1.80;;
80104;SDS011;69865;47.648;19.030;2024-01-27T02:02:10;1.83;;;1.83;;
80104;SDS011;69865;47.648;19.030;2024-01-27T02:02:43;2.60;;;2.60;;
80104;SDS011;69865;47.648;19.030;2024-01-27T02:03:16;1.80;;;1.80;;
80104;SDS011;69865;47.648;19.030;2024-01-27T02:03:51;1.63;;;1.63;;
80104;SDS011;69865;47.648;19.030;2024-01-27T02:04:24;1.53;;;1.53;;
80104;SDS011;69865;47.648;19.030;2024-01-27T02:04:56;1.60;;;1.60;;
80104;SDS011;69865;47.648;19.030;2024-01-27T02:05:28;1.67;;;1.67;;
80104;SDS011;69865;47.648;19.030;2024-01-27T02:06:00;2.00;;;2.00;;
80104;SDS011;69865;47.648;19.030;2024-01-27T02:06:33;2.03;;;2.00;;
80104;SDS011;69865;47.648;19.030;2024-01-27T02:07:05;1.97;;;1.93;;
80104;SDS011;69865;47.648;19.030;2024-01-27T02:07:37;1.90;;;1.90;;
80104;SDS011;69865;47.648;19.030;2024-01-27T02:08:10;1.87;;;1.87;;
80104;SDS011;69865;47.648;19.030;2024-01-27T02:08:42;1.63;;;1.63;;
80104;SDS011;69865;47.648;19.030;2024-01-27T02:09:14;1.20;;;1.20;;
80104;SDS011;69865;47.648;19.030;2024-01-27T02:09:46;1.73;;;1.73;;
80104;SDS011;69865;47.648;19.030;2024-01-27T02:10:18;1.57;;;1.57;;
80104;SDS011;69865;47.648;19.030;2024-01-27T02:10:51;1.67;;;1.67;;
80104;SDS011;69865;47.648;19.030;2024-01-27T02:11:24;1.70;;;1.70;;
80104;SDS011;69865;47.648;19.030;2024-01-27T02:11:56;1.43;;;1.43;;
80104;SDS011;69865;47.648;19.030;2024-01-27T02:12:28;1.60;;;1.60;;
80104;SDS011;69865;47.648;19.030;2024-01-27T02:13:00;1.83;;;1.83;;
80104;SDS011;69865;47.648;19.030;2024-01-27T02:13:32;1.83;;;1.80;;
80104;SDS011;69865;47.648;19.030;2024-01-27T02:14:05;1.70;;;1.70;;
80104;SDS011;69865;47.648;19.030;2024-01-27T02:14:38;1.50;;;1.50;;
80104;SDS011;69865;47.648;19.030;2024-01-27T02:15:10;1.53;;;1.53;;
80104;SDS011;69865;47.648;19.030;2024-01-27T02:15:43;1.37;;;1.37;;
80104;SDS011;69865;47.648;19.030;2024-01-27T02:16:15;1.60;;;1.60;;
80104;SDS011;69865;47.648;19.030;2024-01-27T02:16:47;1.70;;;1.70;;
80104;SDS011;69865;47.648;19.030;2024-01-27T02:17:19;1.53;;;1.53;;
80104;SDS011;69865;47.648;19.030;2024-01-27T02:17:51;1.57;;;1.53;;
80104;SDS011;69865;47.648;19.030;2024-01-27T02:18:24;1.43;;;1.40;;
80104;SDS011;69865;47.648;19.030;2024-01-27T02:18:56;1.73;;;1.73;;
80104;SDS011;69865;47.648;19.030;2024-01-27T02:19:28;1.57;;;1.57;;
80104;SDS011;69865;47.648;19.030;2024-01-27T02:20:01;1.43;;;1.43;;
80104;SDS011;69865;47.648;19.030;2024-01-27T02:20:33;1.43;;;1.43;;
80104;SDS011;69865;47.648;19.030;2024-01-27T02:21:05;1.57;;;1.57;;
80104;SDS011;69865;47.648;19.030;2024-01-27T02:21:37;1.63;;;1.63;;
80104;SDS011;69865;47.648;19.030;2024-01-27T02:22:09;1.50;;;1.50;;
80104;SDS011;69865;47.648;19.030;2024-01-27T02:22:41;1.20;;;1.20;;
80104;SDS011;69865;47.648;19.030;2024-01-27T02:23:13;1.27;;;1.27;;
80104;SDS011;69865;47.648;19.030;2024-01-27T02:23:45;1.33;;;1.33;;
80104;SDS011;69865;47.648;19.030;2024-01-27T02:24:22;1.37;;;1.37;;
80104;SDS011;69865;47.648;19.030;2024-01-27T02:24:54;1.50;;;1.50;;
80104;SDS011;69865;47.648;19.030;2024-01-27T02:25:26;1.60;;;1.60;;
80104;SDS011;69865;47.648;19.030;2024-01-27T02:25:58;1.43;;;1.43;;
80104;SDS011;69865;47.648;19.030;2024-01-27T02:26:30;1.53;;;1.53;;
80104;SDS011;69865;47.648;19.030;2024-01-27T02:27:02;1.27;;;1.23;;
80104;SDS011;69865;47.648;19.030;2024-01-27T02:27:35;1.30;;;1.30;;
80104;SDS011;69865;47.648;19.030;2024-01-27T02:28:07;1.40;;;1.37;;
80104;SDS011;69865;47.648;19.030;2024-01-27T02:28:39;1.33;;;1.30;;
80104;SDS011;69865;47.648;19.030;2024-01-27T02:29:11;1.33;;;1.33;;
80104;SDS011;69865;47.648;19.030;2024-01-27T02:29:43;1.20;;;1.20;;
80104;SDS011;69865;47.648;19.030;2024-01-27T02:30:15;1.27;;;1.27;;
80104;SDS011;69865;47.648;19.030;2024-01-27T02:30:47;1.17;;;1.17;;
80104;SDS011;69865;47.648;19.030;2024-01-27T02:31:19;1.20;;;1.20;;
80104;SDS011;69865;47.648;19.030;2024-01-27T02:31:51;1.20;;;1.20;;
80104;SDS011;69865;47.648;19.030;2024-01-27T02:32:24;1.17;;;1.13;;
80104;SDS011;69865;47.648;19.030;2024-01-27T02:32:56;0.97;;;0.97;;
80104;SDS011;69865;47.648;19.030;2024-01-27T02:33:28;1.10;;;1.10;;
80104;SDS011;69865;47.648;19.030;2024-01-27T02:34:02;0.97;;;0.93;;
80104;SDS011;69865;47.648;19.030;2024-01-27T02:34:34;1.07;;;1.07;;
80104;SDS011;69865;47.648;19.030;2024-01-27T02:35:07;1.03;;;1.03;;
80104;SDS011;69865;47.648;19.030;2024-01-27T02:35:39;1.13;;;1.13;;
80104;SDS011;69865;47.648;19.030;2024-01-27T02:36:12;1.07;;;1.07;;
80104;SDS011;69865;47.648;19.030;2024-01-27T02:36:44;1.20;;;1.17;;
80104;SDS011;69865;47.648;19.030;2024-01-27T02:37:16;1.20;;;1.20;;
80104;SDS011;69865;47.648;19.030;2024-01-27T02:37:49;1.03;;;1.03;;
80104;SDS011;69865;47.648;19.030;2024-01-27T02:38:21;0.93;;;0.90;;
80104;SDS011;69865;47.648;19.030;2024-01-27T02:38:53;1.07;;;1.07;;
80104;SDS011;69865;47.648;19.030;2024-01-27T02:39:27;0.93;;;0.90;;
80104;SDS011;69865;47.648;19.030;2024-01-27T02:39:59;0.93;;;0.93;;
80104;SDS011;69865;47.648;19.030;2024-01-27T02:40:34;0.93;;;0.93;;
80104;SDS011;69865;47.648;19.030;2024-01-27T02:41:06;1.77;;;1.73;;
80104;SDS011;69865;47.648;19.030;2024-01-27T02:41:38;1.17;;;1.13;;
80104;SDS011;69865;47.648;19.030;2024-01-27T02:42:11;0.90;;;0.90;;
80104;SDS011;69865;47.648;19.030;2024-01-27T02:42:43;0.77;;;0.77;;
80104;SDS011;69865;47.648;19.030;2024-01-27T02:43:15;1.03;;;1.00;;
80104;SDS011;69865;47.648;19.030;2024-01-27T02:43:47;0.93;;;0.93;;
80104;SDS011;69865;47.648;19.030;2024-01-27T02:44:19;1.00;;;1.00;;
80104;SDS011;69865;47.648;19.030;2024-01-27T02:44:51;0.87;;;0.87;;
80104;SDS011;69865;47.648;19.030;2024-01-27T02:45:23;0.83;;;0.83;;
80104;SDS011;69865;47.648;19.030;2024-01-27T02:45:55;0.87;;;0.83;;
80104;SDS011;69865;47.648;19.030;2024-01-27T02:46:27;0.90;;;0.90;;
80104;SDS011;69865;47.648;19.030;2024-01-27T02:47:00;1.07;;;1.03;;
80104;SDS011;69865;47.648;19.030;2024-01-27T02:47:32;1.10;;;1.10;;
80104;SDS011;69865;47.648;19.030;2024-01-27T02:48:04;1.00;;;1.00;;
80104;SDS011;69865;47.648;19.030;2024-01-27T02:48:39;1.13;;;1.10;;
80104;SDS011;69865;47.648;19.030;2024-01-27T02:49:12;1.07;;;1.07;;
80104;SDS011;69865;47.648;19.030;2024-01-27T02:49:44;1.03;;;1.03;;
80104;SDS011;69865;47.648;19.030;2024-01-27T02:50:16;1.07;;;1.07;;
80104;SDS011;69865;47.648;19.030;2024-01-27T02:50:49;0.87;;;0.87;;
80104;SDS011;69865;47.648;19.030;2024-01-27T02:51:21;0.93;;;0.90;;
80104;SDS011;69865;47.648;19.030;2024-01-27T02:51:54;1.03;;;1.03;;
80104;SDS011;69865;47.648;19.030;2024-01-27T02:52:26;1.03;;;1.03;;
80104;SDS011;69865;47.648;19.030;2024-01-27T02:52:58;0.97;;;0.93;;
80104;SDS011;69865;47.648;19.030;2024-01-27T02:53:30;0.80;;;0.80;;
80104;SDS011;69865;47.648;19.030;2024-01-27T02:54:03;0.93;;;0.90;;
80104;SDS011;69865;47.648;19.030;2024-01-27T02:54:36;0.97;;;0.90;;
80104;SDS011;69865;47.648;19.030;2024-01-27T02:55:09;1.07;;;1.07;;
80104;SDS011;69865;47.648;19.030;2024-01-27T02:55:41;0.97;;;0.93;;
80104;SDS011;69865;47.648;19.030;2024-01-27T02:56:13;0.97;;;0.93;;
80104;SDS011;69865;47.648;19.030;2024-01-27T02:56:47;0.87;;;0.83;;
80104;SDS011;69865;47.648;19.030;2024-01-27T02:57:19;0.67;;;0.67;;
80104;SDS011;69865;47.648;19.030;2024-01-27T02:57:53;0.77;;;0.77;;
80104;SDS011;69865;47.648;19.030;2024-01-27T02:58:25;0.70;;;0.70;;
80104;SDS011;69865;47.648;19.030;2024-01-27T02:58:57;0.73;;;0.73;;
80104;SDS011;69865;47.648;19.030;2024-01-27T02:59:29;0.90;;;0.83;;
80104;SDS011;69865;47.648;19.030;2024-01-27T03:00:02;0.80;;;0.80;;
80104;SDS011;69865;47.648;19.030;2024-01-27T03:00:34;0.67;;;0.67;;
80104;SDS011;69865;47.648;19.030;2024-01-27T03:01:06;0.87;;;0.87;;
80104;SDS011;69865;47.648;19.030;2024-01-27T03:01:39;0.90;;;0.90;;
80104;SDS011;69865;47.648;19.030;2024-01-27T03:02:11;0.83;;;0.83;;
80104;SDS011;69865;47.648;19.030;2024-01-27T03:02:43;0.93;;;0.90;;
80104;SDS011;69865;47.648;19.030;2024-01-27T03:03:16;0.93;;;0.93;;
80104;SDS011;69865;47.648;19.030;2024-01-27T03:03:48;1.03;;;1.00;;
80104;SDS011;69865;47.648;19.030;2024-01-27T03:04:20;0.90;;;0.90;;
80104;SDS011;69865;47.648;19.030;2024-01-27T03:04:53;0.77;;;0.77;;
80104;SDS011;69865;47.648;19.030;2024-01-27T03:05:25;0.77;;;0.77;;
80104;SDS011;69865;47.648;19.030;2024-01-27T03:05:57;0.83;;;0.80;;
80104;SDS011;69865;47.648;19.030;2024-01-27T03:06:30;0.80;;;0.77;;
80104;SDS011;69865;47.648;19.030;2024-01-27T03:07:02;0.80;;;0.77;;
80104;SDS011;69865;47.648;19.030;2024-01-27T03:07:34;0.83;;;0.80;;
80104;SDS011;69865;47.648;19.030;2024-01-27T03:08:06;1.03;;;0.97;;
80104;SDS011;69865;47.648;19.030;2024-01-27T03:08:39;0.83;;;0.80;;
80104;SDS011;69865;47.648;19.030;2024-01-27T03:09:11;0.73;;;0.73;;
80104;SDS011;69865;47.648;19.030;2024-01-27T03:09:44;0.70;;;0.70;;
80104;SDS011;69865;47.648;19.030;2024-01-27T03:10:16;0.53;;;0.53;;
80104;SDS011;69865;47.648;19.030;2024-01-27T03:10:49;0.63;;;0.63;;
80104;SDS011;69865;47.648;19.030;2024-01-27T03:11:21;0.63;;;0.60;;
80104;SDS011;69865;47.648;19.030;2024-01-27T03:11:53;0.77;;;0.77;;